Louisbourg, Canada
Current Conditions -  °F | °C
As of 6:00 PM on Sunday 21 Dec 2014 (Local Time) from CYQY Reporting Station
Overcast Overcast  
Wind Chill: 23°   Ceiling: 1700
Heat Index: 30°   Visibility: 15mi
Dew Point: 23°   Wind: 7mph
Humidity: 75%   Direction: 20°NNE
Pressure: 30.37"   Gusts: NA
Location:  45.92°N, 59.98°W
Report Text: CYQY 212200Z 02006KT 15SM OVC017 M01/M05 A3037 RMK SC8 SLP287
Loading
Personal Weather Stations






























Interactive Weather Map New forecast layout! Learn more

10-Day Weather Forecast

Advertisements
Track Severe Weather on mobile